BOX810 EDDP-EDDF
Flight info
| Callsign | BOX810 |
|---|---|
| Flight time | 0h 40m |
| Altitude | 22000 |
| Route | ORTAG5E ORTAG T177 ODIPI/N0432F210 T157 KERAX KERAX5A |
| Aircraft | B77L/H-SDE1E2E3FGHIJ2J3J4J5M1RWXY/LB1D1 |
Departure
| Time | 2026-05-05 17:44 |
|---|---|
| Airport | Leipzig/Halle Airport (EDDP) |
Arrival
| Time | 2026-05-05 18:24 |
|---|---|
| Airport | Frankfurt Main Airport (EDDF) |
| Time | Latitude | Longitude | Altitude | Speed | Heading |
|---|---|---|---|---|---|
| 2026-05-05 17:12 | 51.40803 | 12.23566 | 469 ft | 0 kts | 265° |
| 2026-05-05 17:31 | 51.40804 | 12.23591 | 465 ft | 4 kts | 263° |
| 2026-05-05 17:32 | 51.40806 | 12.23633 | 464 ft | 4 kts | 285° |
| 2026-05-05 17:32 | 51.40796 | 12.23665 | 463 ft | 4 kts | 314° |
| 2026-05-05 17:32 | 51.40775 | 12.23682 | 463 ft | 4 kts | 1° |
| 2026-05-05 17:32 | 51.40755 | 12.23681 | 463 ft | 0 kts | 355° |
| 2026-05-05 17:34 | 51.40755 | 12.23682 | 463 ft | 0 kts | 355° |
| 2026-05-05 17:37 | 51.40760 | 12.23681 | 463 ft | 6 kts | 355° |
| 2026-05-05 17:38 | 51.40813 | 12.23675 | 465 ft | 8 kts | 356° |
| 2026-05-05 17:38 | 51.40864 | 12.23669 | 470 ft | 8 kts | 356° |
| 2026-05-05 17:38 | 51.40917 | 12.23663 | 468 ft | 8 kts | 356° |
| 2026-05-05 17:38 | 51.40969 | 12.23657 | 469 ft | 8 kts | 356° |
| 2026-05-05 17:39 | 51.41019 | 12.23642 | 471 ft | 8 kts | 337° |
| 2026-05-05 17:39 | 51.41046 | 12.23574 | 469 ft | 8 kts | 278° |
| 2026-05-05 17:39 | 51.41043 | 12.23476 | 471 ft | 10 kts | 264° |
| 2026-05-05 17:39 | 51.41038 | 12.23359 | 471 ft | 11 kts | 272° |
| 2026-05-05 17:40 | 51.41087 | 12.23270 | 474 ft | 11 kts | 334° |
| 2026-05-05 17:40 | 51.41116 | 12.23149 | 470 ft | 14 kts | 265° |
| 2026-05-05 17:40 | 51.41107 | 12.22980 | 473 ft | 17 kts | 265° |
| 2026-05-05 17:40 | 51.41098 | 12.22769 | 468 ft | 21 kts | 266° |
| 2026-05-05 17:41 | 51.41087 | 12.22519 | 465 ft | 24 kts | 265° |
| 2026-05-05 17:41 | 51.41075 | 12.22246 | 464 ft | 25 kts | 266° |
| 2026-05-05 17:41 | 51.41063 | 12.22027 | 463 ft | 18 kts | 265° |
| 2026-05-05 17:41 | 51.41053 | 12.21824 | 464 ft | 18 kts | 265° |
| 2026-05-05 17:42 | 51.41043 | 12.21614 | 463 ft | 20 kts | 266° |
| 2026-05-05 17:42 | 51.41032 | 12.21365 | 457 ft | 24 kts | 266° |
| 2026-05-05 17:42 | 51.41019 | 12.21082 | 451 ft | 27 kts | 265° |
| 2026-05-05 17:42 | 51.41005 | 12.20789 | 434 ft | 23 kts | 266° |
| 2026-05-05 17:43 | 51.40997 | 12.20540 | 431 ft | 22 kts | 282° |
| 2026-05-05 17:43 | 51.41103 | 12.20502 | 442 ft | 17 kts | 10° |
| 2026-05-05 17:43 | 51.41170 | 12.20635 | 434 ft | 17 kts | 84° |
| 2026-05-05 17:43 | 51.41187 | 12.21017 | 450 ft | 61 kts | 85° |
| 2026-05-05 17:44 | 51.41242 | 12.22105 | 463 ft | 132 kts | 86° |
| 2026-05-05 17:44 | 51.41326 | 12.23858 | 597 ft | 172 kts | 84° |
| 2026-05-05 17:44 | 51.41429 | 12.25756 | 1337 ft | 171 kts | 83° |
| 2026-05-05 17:44 | 51.41517 | 12.27641 | 2136 ft | 168 kts | 83° |
| 2026-05-05 17:45 | 51.41612 | 12.29579 | 2667 ft | 186 kts | 83° |
| 2026-05-05 17:45 | 51.41731 | 12.31809 | 2924 ft | 215 kts | 84° |
| 2026-05-05 17:45 | 51.41871 | 12.34356 | 3313 ft | 240 kts | 84° |
| 2026-05-05 17:45 | 51.42041 | 12.37088 | 3966 ft | 250 kts | 79° |
| 2026-05-05 17:46 | 51.42752 | 12.39661 | 4665 ft | 261 kts | 52° |
| 2026-05-05 17:46 | 51.44144 | 12.41523 | 5510 ft | 268 kts | 30° |
| 2026-05-05 17:46 | 51.45912 | 12.42554 | 6345 ft | 276 kts | 7° |
| 2026-05-05 17:46 | 51.47821 | 12.42196 | 7090 ft | 280 kts | 342° |
| 2026-05-05 17:47 | 51.49702 | 12.41249 | 7845 ft | 285 kts | 342° |
| 2026-05-05 17:47 | 51.51628 | 12.40363 | 8748 ft | 288 kts | 343° |
| 2026-05-05 17:47 | 51.53568 | 12.39514 | 9668 ft | 291 kts | 343° |
| 2026-05-05 17:47 | 51.55496 | 12.38476 | 10286 ft | 296 kts | 329° |
| 2026-05-05 17:48 | 51.57059 | 12.36175 | 10512 ft | 318 kts | 299° |
| 2026-05-05 17:48 | 51.57921 | 12.32807 | 10690 ft | 339 kts | 285° |
| 2026-05-05 17:48 | 51.58666 | 12.29057 | 10997 ft | 363 kts | 287° |
| 2026-05-05 17:48 | 51.59474 | 12.25201 | 11727 ft | 375 kts | 287° |
| 2026-05-05 17:49 | 51.60419 | 12.21204 | 12600 ft | 380 kts | 295° |
| 2026-05-05 17:49 | 51.62044 | 12.17863 | 13376 ft | 395 kts | 317° |
| 2026-05-05 17:49 | 51.64340 | 12.15383 | 14234 ft | 399 kts | 327° |
| 2026-05-05 17:49 | 51.66738 | 12.13061 | 15069 ft | 402 kts | 326° |
| 2026-05-05 17:50 | 51.68855 | 12.10181 | 15756 ft | 402 kts | 306° |
| 2026-05-05 17:50 | 51.70139 | 12.06198 | 16561 ft | 402 kts | 285° |
| 2026-05-05 17:50 | 51.70630 | 12.01754 | 17500 ft | 402 kts | 269° |
| 2026-05-05 17:50 | 51.70500 | 11.97248 | 18330 ft | 404 kts | 263° |
| 2026-05-05 17:51 | 51.70253 | 11.92748 | 19037 ft | 410 kts | 263° |
| 2026-05-05 17:51 | 51.69984 | 11.88160 | 19865 ft | 412 kts | 262° |
| 2026-05-05 17:51 | 51.69718 | 11.83542 | 20692 ft | 414 kts | 263° |
| 2026-05-05 17:51 | 51.69461 | 11.78893 | 21470 ft | 418 kts | 263° |
| 2026-05-05 17:52 | 51.69209 | 11.74169 | 21843 ft | 427 kts | 263° |
| 2026-05-05 17:52 | 51.68960 | 11.69386 | 21822 ft | 428 kts | 263° |
| 2026-05-05 17:52 | 51.68717 | 11.64620 | 21830 ft | 425 kts | 263° |
| 2026-05-05 17:52 | 51.68474 | 11.59888 | 21822 ft | 424 kts | 263° |
| 2026-05-05 17:53 | 51.68229 | 11.55140 | 21830 ft | 424 kts | 263° |
| 2026-05-05 17:53 | 51.67981 | 11.50392 | 21826 ft | 425 kts | 263° |
| 2026-05-05 17:53 | 51.67734 | 11.45709 | 21828 ft | 425 kts | 263° |
| 2026-05-05 17:53 | 51.67482 | 11.40955 | 21826 ft | 425 kts | 263° |
| 2026-05-05 17:54 | 51.67228 | 11.36222 | 21830 ft | 425 kts | 263° |
| 2026-05-05 17:54 | 51.66796 | 11.31585 | 21816 ft | 417 kts | 251° |
| 2026-05-05 17:54 | 51.65521 | 11.27397 | 21833 ft | 415 kts | 234° |
| 2026-05-05 17:54 | 51.63631 | 11.23873 | 21834 ft | 416 kts | 221° |
| 2026-05-05 17:55 | 51.61286 | 11.21142 | 21831 ft | 417 kts | 212° |
| 2026-05-05 17:55 | 51.58829 | 11.18646 | 21824 ft | 419 kts | 212° |
| 2026-05-05 17:55 | 51.56366 | 11.16122 | 21826 ft | 420 kts | 213° |
| 2026-05-05 17:55 | 51.53919 | 11.13554 | 21823 ft | 420 kts | 213° |
| 2026-05-05 17:56 | 51.51518 | 11.11003 | 21827 ft | 420 kts | 213° |
| 2026-05-05 17:56 | 51.49174 | 11.08242 | 21822 ft | 417 kts | 222° |
| 2026-05-05 17:56 | 51.47878 | 11.05891 | 21806 ft | 419 kts | 234° |
| 2026-05-05 17:56 | 51.45961 | 11.00556 | 21833 ft | 418 kts | 236° |
| 2026-05-05 17:57 | 51.44239 | 10.96775 | 21834 ft | 421 kts | 228° |
| 2026-05-05 17:57 | 51.42236 | 10.93358 | 21827 ft | 419 kts | 222° |
| 2026-05-05 17:57 | 51.40070 | 10.90226 | 21808 ft | 418 kts | 221° |
| 2026-05-05 17:57 | 51.37909 | 10.87106 | 21827 ft | 417 kts | 221° |
| 2026-05-05 17:58 | 51.36486 | 10.85040 | 21805 ft | 417 kts | 221° |
| 2026-05-05 17:58 | 51.34337 | 10.81910 | 21820 ft | 417 kts | 221° |
| 2026-05-05 17:58 | 51.31475 | 10.77735 | 21826 ft | 417 kts | 221° |
| 2026-05-05 17:58 | 51.30051 | 10.75659 | 21795 ft | 417 kts | 221° |
| 2026-05-05 17:59 | 51.27906 | 10.72531 | 21814 ft | 417 kts | 221° |
| 2026-05-05 17:59 | 51.25763 | 10.69411 | 21811 ft | 417 kts | 221° |
| 2026-05-05 17:59 | 51.23617 | 10.66290 | 21811 ft | 418 kts | 221° |
| 2026-05-05 17:59 | 51.21465 | 10.63166 | 21805 ft | 418 kts | 221° |
| 2026-05-05 18:00 | 51.19311 | 10.60043 | 21809 ft | 418 kts | 221° |
| 2026-05-05 18:00 | 51.17153 | 10.56919 | 21811 ft | 418 kts | 221° |
| 2026-05-05 18:00 | 51.14999 | 10.53805 | 21809 ft | 418 kts | 221° |
| 2026-05-05 18:00 | 51.12842 | 10.50688 | 21806 ft | 418 kts | 221° |
| 2026-05-05 18:01 | 51.10708 | 10.47610 | 21808 ft | 418 kts | 221° |
| 2026-05-05 18:01 | 51.08537 | 10.44481 | 21789 ft | 420 kts | 220° |
| 2026-05-05 18:01 | 51.06367 | 10.41360 | 21815 ft | 421 kts | 220° |
| 2026-05-05 18:01 | 51.04188 | 10.38230 | 21805 ft | 423 kts | 220° |
| 2026-05-05 18:02 | 51.02006 | 10.35098 | 21808 ft | 424 kts | 220° |
| 2026-05-05 18:02 | 50.99850 | 10.32010 | 21811 ft | 424 kts | 220° |
| 2026-05-05 18:02 | 50.97624 | 10.28825 | 21789 ft | 425 kts | 220° |
| 2026-05-05 18:02 | 50.95457 | 10.25728 | 21802 ft | 425 kts | 220° |
| 2026-05-05 18:03 | 50.93254 | 10.22584 | 21806 ft | 424 kts | 220° |
| 2026-05-05 18:03 | 50.91061 | 10.19457 | 21802 ft | 424 kts | 220° |
| 2026-05-05 18:03 | 50.88875 | 10.16345 | 21540 ft | 420 kts | 220° |
| 2026-05-05 18:03 | 50.86703 | 10.13257 | 20914 ft | 418 kts | 220° |
| 2026-05-05 18:04 | 50.84542 | 10.10188 | 20254 ft | 416 kts | 220° |
| 2026-05-05 18:04 | 50.82384 | 10.07128 | 19629 ft | 413 kts | 220° |
| 2026-05-05 18:04 | 50.80251 | 10.04108 | 19041 ft | 410 kts | 220° |
| 2026-05-05 18:04 | 50.78129 | 10.01106 | 18490 ft | 407 kts | 220° |
| 2026-05-05 18:05 | 50.76023 | 9.98131 | 17917 ft | 404 kts | 220° |
| 2026-05-05 18:05 | 50.73957 | 9.95217 | 17303 ft | 401 kts | 220° |
| 2026-05-05 18:05 | 50.71880 | 9.92292 | 16713 ft | 398 kts | 220° |
| 2026-05-05 18:05 | 50.69817 | 9.89388 | 16137 ft | 395 kts | 220° |
| 2026-05-05 18:06 | 50.67773 | 9.86514 | 15581 ft | 393 kts | 220° |
| 2026-05-05 18:06 | 50.66421 | 9.84616 | 15219 ft | 391 kts | 220° |
| 2026-05-05 18:06 | 50.64156 | 9.81440 | 14615 ft | 389 kts | 220° |
| 2026-05-05 18:06 | 50.62775 | 9.79507 | 14253 ft | 387 kts | 220° |
| 2026-05-05 18:07 | 50.61103 | 9.77166 | 13824 ft | 385 kts | 220° |
| 2026-05-05 18:07 | 50.59854 | 9.75419 | 13496 ft | 384 kts | 220° |
| 2026-05-05 18:08 | 50.59197 | 9.74500 | 13306 ft | 383 kts | 220° |
| 2026-05-05 18:08 | 50.58903 | 9.74089 | 13221 ft | 382 kts | 220° |
| 2026-05-05 18:08 | 50.57628 | 9.72308 | 12858 ft | 381 kts | 220° |
| 2026-05-05 18:09 | 50.55662 | 9.69562 | 12346 ft | 377 kts | 220° |
| 2026-05-05 18:09 | 50.54734 | 9.68268 | 12090 ft | 376 kts | 220° |
| 2026-05-05 18:09 | 50.52786 | 9.65551 | 11568 ft | 373 kts | 220° |
| 2026-05-05 18:09 | 50.50848 | 9.62854 | 11070 ft | 370 kts | 220° |
| 2026-05-05 18:10 | 50.48916 | 9.60160 | 10877 ft | 372 kts | 222° |
| 2026-05-05 18:10 | 50.47298 | 9.56970 | 10813 ft | 376 kts | 241° |
| 2026-05-05 18:10 | 50.46461 | 9.53157 | 10813 ft | 371 kts | 253° |
| 2026-05-05 18:10 | 50.45602 | 9.49324 | 10799 ft | 374 kts | 243° |
| 2026-05-05 18:11 | 50.44256 | 9.45873 | 10805 ft | 366 kts | 230° |
| 2026-05-05 18:11 | 50.42518 | 9.43105 | 10797 ft | 346 kts | 218° |
| 2026-05-05 18:11 | 50.40660 | 9.40860 | 10793 ft | 327 kts | 215° |
| 2026-05-05 18:11 | 50.38863 | 9.38832 | 10788 ft | 310 kts | 214° |
| 2026-05-05 18:12 | 50.37179 | 9.36950 | 10785 ft | 294 kts | 214° |
| 2026-05-05 18:12 | 50.35533 | 9.35116 | 10796 ft | 286 kts | 214° |
| 2026-05-05 18:12 | 50.33910 | 9.33314 | 10805 ft | 286 kts | 214° |
| 2026-05-05 18:12 | 50.32281 | 9.31511 | 10811 ft | 286 kts | 213° |
| 2026-05-05 18:13 | 50.30656 | 9.29713 | 10629 ft | 285 kts | 213° |
| 2026-05-05 18:13 | 50.29044 | 9.27933 | 10333 ft | 282 kts | 214° |
| 2026-05-05 18:13 | 50.27444 | 9.26169 | 9960 ft | 281 kts | 214° |
| 2026-05-05 18:13 | 50.25848 | 9.24427 | 9620 ft | 278 kts | 214° |
| 2026-05-05 18:14 | 50.24264 | 9.22710 | 9220 ft | 276 kts | 214° |
| 2026-05-05 18:14 | 50.22726 | 9.20937 | 8786 ft | 273 kts | 223° |
| 2026-05-05 18:14 | 50.21662 | 9.18509 | 8435 ft | 269 kts | 243° |
| 2026-05-05 18:14 | 50.20890 | 9.15926 | 8330 ft | 256 kts | 243° |
| 2026-05-05 18:15 | 50.20166 | 9.13493 | 8173 ft | 245 kts | 243° |
| 2026-05-05 18:15 | 50.19466 | 9.11125 | 7967 ft | 236 kts | 243° |
| 2026-05-05 18:15 | 50.18782 | 9.08808 | 7572 ft | 234 kts | 244° |
| 2026-05-05 18:15 | 50.18104 | 9.06517 | 7272 ft | 229 kts | 243° |
| 2026-05-05 18:16 | 50.17450 | 9.04298 | 7001 ft | 223 kts | 244° |
| 2026-05-05 18:16 | 50.16805 | 9.02111 | 6656 ft | 220 kts | 244° |
| 2026-05-05 18:16 | 50.16172 | 8.99964 | 6232 ft | 217 kts | 244° |
| 2026-05-05 18:16 | 50.15539 | 8.97819 | 5719 ft | 217 kts | 244° |
| 2026-05-05 18:17 | 50.14889 | 8.95686 | 5247 ft | 216 kts | 243° |
| 2026-05-05 18:17 | 50.14256 | 8.93579 | 4901 ft | 216 kts | 245° |
| 2026-05-05 18:17 | 50.13683 | 8.91410 | 4824 ft | 215 kts | 247° |
| 2026-05-05 18:17 | 50.13173 | 8.89339 | 4788 ft | 193 kts | 248° |
| 2026-05-05 18:18 | 50.12727 | 8.87479 | 4786 ft | 176 kts | 248° |
| 2026-05-05 18:18 | 50.12306 | 8.85719 | 4804 ft | 172 kts | 248° |
| 2026-05-05 18:18 | 50.11888 | 8.83970 | 4724 ft | 172 kts | 248° |
| 2026-05-05 18:18 | 50.11484 | 8.82272 | 4471 ft | 160 kts | 248° |
| 2026-05-05 18:19 | 50.11111 | 8.80709 | 4246 ft | 147 kts | 248° |
| 2026-05-05 18:19 | 50.10760 | 8.79237 | 4047 ft | 145 kts | 249° |
| 2026-05-05 18:19 | 50.10408 | 8.77763 | 3849 ft | 144 kts | 249° |
| 2026-05-05 18:19 | 50.10060 | 8.76303 | 3647 ft | 144 kts | 249° |
| 2026-05-05 18:20 | 50.09712 | 8.74846 | 3443 ft | 143 kts | 249° |
| 2026-05-05 18:20 | 50.09369 | 8.73411 | 3229 ft | 142 kts | 249° |
| 2026-05-05 18:20 | 50.09026 | 8.71969 | 3046 ft | 143 kts | 250° |
| 2026-05-05 18:20 | 50.08678 | 8.70513 | 2846 ft | 144 kts | 250° |
| 2026-05-05 18:21 | 50.08331 | 8.69061 | 2628 ft | 142 kts | 250° |
| 2026-05-05 18:21 | 50.07992 | 8.67640 | 2432 ft | 142 kts | 250° |
| 2026-05-05 18:21 | 50.07647 | 8.66198 | 2226 ft | 142 kts | 250° |
| 2026-05-05 18:21 | 50.07305 | 8.64765 | 2017 ft | 141 kts | 250° |
| 2026-05-05 18:22 | 50.06967 | 8.63348 | 1819 ft | 141 kts | 250° |
| 2026-05-05 18:22 | 50.06622 | 8.61904 | 1622 ft | 142 kts | 250° |
| 2026-05-05 18:22 | 50.06277 | 8.60460 | 1425 ft | 142 kts | 250° |
| 2026-05-05 18:22 | 50.05936 | 8.59035 | 1205 ft | 143 kts | 250° |
| 2026-05-05 18:23 | 50.05589 | 8.57583 | 997 ft | 144 kts | 249° |
| 2026-05-05 18:23 | 50.05247 | 8.56133 | 794 ft | 144 kts | 249° |
| 2026-05-05 18:23 | 50.04901 | 8.54682 | 584 ft | 145 kts | 249° |
| 2026-05-05 18:23 | 50.04553 | 8.53228 | 393 ft | 144 kts | 249° |
| 2026-05-05 18:24 | 50.04221 | 8.51854 | 351 ft | 119 kts | 249° |
| 2026-05-05 18:24 | 50.03995 | 8.50917 | 329 ft | 68 kts | 249° |
| 2026-05-05 18:24 | 50.03872 | 8.50452 | 322 ft | 38 kts | 237° |
| 2026-05-05 18:24 | 50.03745 | 8.50254 | 322 ft | 17 kts | 219° |
| 2026-05-05 18:25 | 50.03667 | 8.50180 | 323 ft | 7 kts | 182° |
| 2026-05-05 18:25 | 50.03659 | 8.50183 | 324 ft | 0 kts | 165° |
| 2026-05-05 18:26 | 50.03651 | 8.50190 | 327 ft | 5 kts | 153° |
| 2026-05-05 18:26 | 50.03633 | 8.50279 | 329 ft | 11 kts | 82° |
| 2026-05-05 18:26 | 50.03654 | 8.50393 | 329 ft | 11 kts | 70° |
| 2026-05-05 18:26 | 50.03681 | 8.50507 | 329 ft | 11 kts | 70° |
| 2026-05-05 18:27 | 50.03707 | 8.50621 | 333 ft | 11 kts | 69° |
| 2026-05-05 18:27 | 50.03734 | 8.50733 | 334 ft | 11 kts | 69° |
| 2026-05-05 18:27 | 50.03760 | 8.50846 | 335 ft | 11 kts | 75° |
| 2026-05-05 18:27 | 50.03753 | 8.50963 | 337 ft | 11 kts | 111° |
| 2026-05-05 18:28 | 50.03686 | 8.51178 | 356 ft | 11 kts | 116° |
| 2026-05-05 18:28 | 50.03652 | 8.51285 | 359 ft | 11 kts | 116° |
| 2026-05-05 18:28 | 50.03618 | 8.51393 | 362 ft | 11 kts | 116° |
| 2026-05-05 18:29 | 50.03583 | 8.51504 | 365 ft | 12 kts | 116° |
| 2026-05-05 18:29 | 50.03538 | 8.51644 | 363 ft | 16 kts | 116° |
| 2026-05-05 18:29 | 50.03513 | 8.51821 | 362 ft | 17 kts | 84° |
| 2026-05-05 18:29 | 50.03525 | 8.51990 | 357 ft | 16 kts | 83° |
| 2026-05-05 18:30 | 50.03534 | 8.52103 | 357 ft | 7 kts | 83° |
| 2026-05-05 18:30 | 50.03541 | 8.52183 | 352 ft | 4 kts | 82° |
| 2026-05-05 18:30 | 50.03547 | 8.52255 | 352 ft | 3 kts | 82° |
| 2026-05-05 18:30 | 50.03548 | 8.52267 | 353 ft | 0 kts | 83° |
| 2026-05-05 18:31 | 50.03550 | 8.52290 | 351 ft | 5 kts | 82° |
| 2026-05-05 18:31 | 50.03556 | 8.52329 | 348 ft | 0 kts | 71° |
| 2026-05-05 18:31 | 50.03557 | 8.52331 | 345 ft | 0 kts | 71° |
| 2026-05-05 18:32 | 50.03558 | 8.52339 | 345 ft | 3 kts | 71° |
| 2026-05-05 18:32 | 50.03575 | 8.52408 | 350 ft | 8 kts | 69° |
| 2026-05-05 18:32 | 50.03590 | 8.52471 | 351 ft | 6 kts | 70° |
| 2026-05-05 18:33 | 50.03597 | 8.52531 | 352 ft | 6 kts | 89° |
| 2026-05-05 18:33 | 50.03598 | 8.52599 | 345 ft | 7 kts | 86° |
| 2026-05-05 18:33 | 50.03607 | 8.52671 | 354 ft | 7 kts | 73° |
| 2026-05-05 18:33 | 50.03621 | 8.52731 | 351 ft | 1 kts | 70° |
| 2026-05-05 18:34 | 50.03623 | 8.52739 | 350 ft | 1 kts | 70° |
| 2026-05-05 18:34 | 50.03624 | 8.52746 | 355 ft | 3 kts | 70° |
| 2026-05-05 18:34 | 50.03637 | 8.52798 | 354 ft | 5 kts | 64° |
| 2026-05-05 18:34 | 50.03670 | 8.52810 | 355 ft | 6 kts | 345° |
| 2026-05-05 18:35 | 50.03707 | 8.52791 | 355 ft | 5 kts | 341° |
| 2026-05-05 18:35 | 50.03723 | 8.52782 | 358 ft | 0 kts | 340° |
| 2026-05-05 18:35 | 50.03729 | 8.52779 | 358 ft | 1 kts | 340° |
| 2026-05-05 18:35 | 50.03735 | 8.52775 | 358 ft | 0 kts | 340° |